Terminal Aerodrome Forecast
Issued by NWS Corpus Christi, TX

Home | Current Version | Previous Version | Text Only | Print | Product List | Glossary On
Versions: 1 2 3 4 5 6 7 8 9 10 11 12 13 14 15 16
323
FTUS44 KCRP 300520
TAFVCT
TAF
KVCT 300520Z 3006/3106 16005KT P6SM FEW020
     FM300900 14003KT 5SM BR SCT012
      TEMPO 3010/3012 3SM BR BKN012
     FM301400 16008KT P6SM SCT020 SCT035
     FM301800 15012KT P6SM SCT050
     FM310200 14006KT P6SM FEW020=

USA.gov is the U.S. government's official web portal to all federal, state and local government web resources and services.